Time;durP1;ratioP1;P1;durP2;ratioP2;P2;SDS_P1;SDS_P2;PMS_P1;PMS_P2;Temp;Humidity;BMP_temperature;BMP_pressure;BME280_temperature;BME280_humidity;BME280_pressure;Samples;Min_cycle;Max_cycle;Signal;HPM_P1;HPM_P2
2022/07/22 00:01:17;;;;;;;7.65;2.90;;;;;;;18.94;56.51;101329.81;5054802;28;20090;-49
2022/07/22 00:03:44;;;;;;;7.20;2.97;;;;;;;19.07;56.14;101345.72;5054773;28;20021;-49
2022/07/22 00:06:10;;;;;;;11.63;3.33;;;;;;;18.83;55.96;101344.28;5052212;28;20021;-49
2022/07/22 00:08:36;;;;;;;9.15;3.00;;;;;;;18.83;57.39;101344.28;5034589;28;20053;-50
2022/07/22 00:11:03;;;;;;;7.32;3.03;;;;;;;18.49;57.81;101330.72;5034834;28;20415;-49
2022/07/22 00:13:29;;;;;;;11.50;3.75;;;;;;;18.61;57.31;101336.88;5050390;28;20358;-50
2022/07/22 00:15:55;;;;;;;10.52;3.53;;;;;;;18.54;57.53;101338.09;5054630;28;20547;-51
2022/07/22 00:18:21;;;;;;;10.15;2.92;;;;;;;18.31;58.28;101344.50;5054251;28;20025;-50
2022/07/22 00:20:48;;;;;;;14.10;3.25;;;;;;;18.16;58.29;101332.34;5054639;28;20071;-50
2022/07/22 00:23:14;;;;;;;7.20;2.90;;;;;;;18.23;58.69;101342.19;5053475;28;20108;-49
2022/07/22 00:25:41;;;;;;;13.48;3.78;;;;;;;17.92;58.80;101336.22;5054581;28;20108;-50
2022/07/22 00:28:07;;;;;;;10.77;3.75;;;;;;;17.83;59.96;101340.41;5054431;28;20033;-49
2022/07/22 00:30:33;;;;;;;9.60;3.25;;;;;;;17.96;59.67;101336.56;5054234;28;20548;-49
2022/07/22 00:33:00;;;;;;;10.50;3.50;;;;;;;17.86;59.92;101335.31;5053958;28;20493;-49
2022/07/22 00:35:26;;;;;;;12.73;3.55;;;;;;;17.90;59.91;101341.88;5054351;28;20021;-49
2022/07/22 00:37:52;;;;;;;10.57;3.83;;;;;;;17.81;59.67;101340.63;5053503;28;20063;-49
2022/07/22 00:40:18;;;;;;;6.60;2.88;;;;;;;17.59;60.39;101339.63;5053854;28;20496;-50
2022/07/22 00:42:45;;;;;;;8.45;3.28;;;;;;;17.43;60.40;101330.34;5035504;28;20354;-49
2022/07/22 00:45:11;;;;;;;10.93;4.18;;;;;;;17.34;61.19;101329.09;5053911;28;20029;-49
2022/07/22 00:47:37;;;;;;;7.00;3.78;;;;;;;17.33;61.68;101333.69;5043750;28;20075;-50
2022/07/22 00:50:04;;;;;;;10.18;3.58;;;;;;;17.34;61.45;101324.50;5053920;28;20389;-50
2022/07/22 00:52:32;;;;;;;11.75;3.20;;;;;;;17.28;61.73;101311.13;5053407;28;20029;-50
2022/07/22 00:55:00;;;;;;;14.10;4.07;;;;;;;17.18;61.73;101317.13;5053374;28;20564;-49
2022/07/22 00:57:27;;;;;;;13.75;4.97;;;;;;;16.99;62.58;101311.06;5053850;28;20059;-50
2022/07/22 00:59:54;;;;;;;17.23;4.97;;;;;;;16.84;63.22;101308.84;5053086;28;20029;-49
2022/07/22 01:02:20;;;;;;;12.32;4.45;;;;;;;16.82;63.69;101307.41;5050158;28;20033;-49
2022/07/22 01:04:47;;;;;;;12.25;5.35;;;;;;;16.75;64.00;101304.81;5050944;28;20029;-50
2022/07/22 01:07:13;;;;;;;9.18;3.65;;;;;;;16.77;63.78;101299.22;5033366;28;20163;-48
2022/07/22 01:09:43;;;;;;;9.70;4.63;;;;;;;16.58;64.20;101291.16;5051094;28;20524;-49
2022/07/22 01:12:11;;;;;;;14.38;4.85;;;;;;;16.36;65.25;101287.41;5053416;28;20029;-49
2022/07/22 01:14:37;;;;;;;11.85;3.90;;;;;;;16.28;65.64;101298.56;5056321;28;20029;-46
2022/07/22 01:17:04;;;;;;;11.07;3.75;;;;;;;16.22;66.07;101281.41;5043245;28;20052;-48
2022/07/22 01:19:30;;;;;;;11.05;4.18;;;;;;;16.36;65.65;101295.50;5051607;28;20363;-48
2022/07/22 01:21:56;;;;;;;13.57;4.85;;;;;;;16.31;65.57;101276.47;5052775;28;20063;-48
2022/07/22 01:24:23;;;;;;;13.80;4.15;;;;;;;16.22;65.82;101291.38;5053166;28;20477;-46
2022/07/22 01:26:49;;;;;;;11.02;4.28;;;;;;;15.95;66.42;101275.59;5053611;28;20052;-49
2022/07/22 01:29:15;;;;;;;15.98;4.97;;;;;;;15.94;67.08;101286.63;5053551;28;20024;-49
2022/07/22 01:31:41;;;;;;;15.10;4.63;;;;;;;15.77;67.33;101283.75;5053286;28;20060;-49
2022/07/22 01:34:07;;;;;;;14.15;3.97;;;;;;;15.82;67.23;101286.56;5051042;28;20036;-49
2022/07/22 01:36:34;;;;;;;12.63;4.00;;;;;;;15.93;67.12;101288.47;5052946;28;20025;-50
2022/07/22 01:39:00;;;;;;;9.30;3.88;;;;;;;15.88;66.89;101280.28;5052680;28;20090;-49
2022/07/22 01:41:26;;;;;;;10.98;3.88;;;;;;;15.81;66.83;101293.03;5053265;28;20435;-49
2022/07/22 01:43:53;;;;;;;16.35;4.53;;;;;;;15.65;67.41;101286.38;5052686;28;20036;-49
2022/07/22 01:46:20;;;;;;;13.45;3.80;;;;;;;15.61;67.64;101285.19;5054837;28;20375;-49
2022/07/22 01:48:46;;;;;;;10.93;4.05;;;;;;;15.35;68.13;101289.03;5052704;28;20063;-47
2022/07/22 01:51:13;;;;;;;13.55;3.92;;;;;;;15.32;68.70;101284.09;5056425;28;20025;-49
2022/07/22 01:53:39;;;;;;;11.23;4.60;;;;;;;15.18;69.01;101293.41;5059103;28;20111;-49
2022/07/22 01:56:05;;;;;;;10.10;3.85;;;;;;;15.12;69.03;101297.00;5033293;28;20048;-47
2022/07/22 01:58:32;;;;;;;12.30;4.38;;;;;;;14.76;70.61;101290.53;5036429;28;20020;-49
2022/07/22 02:00:58;;;;;;;12.40;4.45;;;;;;;14.75;70.66;101291.56;5048553;28;20032;-47
2022/07/22 02:03:24;;;;;;;11.65;4.40;;;;;;;14.63;71.12;101294.19;5043824;28;20075;-49
2022/07/22 02:05:51;;;;;;;14.38;4.88;;;;;;;14.57;71.47;101296.94;5039627;28;20393;-46
2022/07/22 02:08:17;;;;;;;11.27;4.43;;;;;;;14.57;71.88;101294.25;5072300;28;20091;-46
2022/07/22 02:10:44;;;;;;;14.40;5.25;;;;;;;14.52;72.28;101298.41;5063757;28;20029;-47
2022/07/22 02:13:10;;;;;;;10.25;4.38;;;;;;;14.40;72.33;101302.84;5049518;28;20075;-50
2022/07/22 02:15:36;;;;;;;16.65;5.35;;;;;;;14.23;73.12;101301.75;5037441;28;20104;-46
2022/07/22 02:18:21;;;;;;;12.10;4.63;;;;;;;14.22;73.33;101300.09;5049061;28;20469;-50
2022/07/22 02:20:47;;;;;;;16.38;5.05;;;;;;;14.27;73.24;101302.97;5042356;28;20037;-50
2022/07/22 02:23:13;;;;;;;13.80;4.80;;;;;;;14.21;73.41;101298.44;5033786;28;20029;-49
2022/07/22 02:25:41;;;;;;;16.85;5.30;;;;;;;14.07;73.58;101294.19;5051973;28;20432;-50
2022/07/22 02:28:07;;;;;;;13.68;5.28;;;;;;;13.99;74.22;101303.34;5051980;28;20020;-49
2022/07/22 02:30:34;;;;;;;14.27;5.32;;;;;;;14.07;74.25;101310.34;5070199;28;20048;-46
2022/07/22 02:33:00;;;;;;;14.68;5.10;;;;;;;14.14;74.08;101309.25;5053116;28;20025;-48
2022/07/22 02:35:26;;;;;;;13.95;4.75;;;;;;;14.17;73.93;101311.53;5033787;28;20025;-50
2022/07/22 02:37:52;;;;;;;10.82;4.53;;;;;;;14.13;73.93;101306.78;5070753;28;20085;-48
2022/07/22 02:40:19;;;;;;;15.57;5.15;;;;;;;14.13;74.49;101293.31;5065479;28;20032;-48
2022/07/22 02:42:45;;;;;;;14.82;5.00;;;;;;;13.99;74.53;101301.50;5051542;28;20021;-50
2022/07/22 02:45:11;;;;;;;8.07;4.40;;;;;;;13.89;74.12;101309.22;5050762;28;20041;-49
2022/07/22 02:47:48;;;;;;;14.95;6.13;;;;;;;13.88;74.46;101310.28;5051694;28;20588;-48
2022/07/22 02:50:14;;;;;;;12.80;5.07;;;;;;;13.72;75.46;101318.84;5052488;28;20393;-49
2022/07/22 02:52:41;;;;;;;14.20;5.32;;;;;;;13.74;75.41;101316.75;5051638;28;20048;-49
2022/07/22 02:55:07;;;;;;;14.15;5.18;;;;;;;13.63;75.21;101320.94;5051317;28;20037;-50
2022/07/22 02:57:33;;;;;;;14.38;4.78;;;;;;;13.60;75.34;101312.47;5051564;28;20159;-49
2022/07/22 03:00:00;;;;;;;15.07;5.72;;;;;;;13.48;75.81;101315.84;5051446;28;20055;-49
2022/07/22 03:02:26;;;;;;;15.90;5.65;;;;;;;13.48;76.12;101321.22;5051203;28;20032;-48
2022/07/22 03:04:52;;;;;;;13.85;5.80;;;;;;;13.54;76.22;101314.16;5050836;28;20039;-50
2022/07/22 03:07:18;;;;;;;15.48;5.30;;;;;;;13.26;76.65;101309.09;5041941;28;20436;-50
2022/07/22 03:09:45;;;;;;;18.58;5.53;;;;;;;13.30;76.58;101304.94;5051118;28;20131;-50
2022/07/22 03:12:11;;;;;;;14.00;5.57;;;;;;;13.33;76.50;101298.34;5051239;28;20071;-49
2022/07/22 03:14:37;;;;;;;15.85;4.68;;;;;;;13.34;76.33;101298.13;5051136;28;20504;-49
2022/07/22 03:17:03;;;;;;;12.65;4.97;;;;;;;13.32;76.25;101294.78;5048970;28;20044;-46
2022/07/22 03:19:30;;;;;;;13.48;5.25;;;;;;;13.20;76.98;101294.59;5038986;28;20071;-47
2022/07/22 03:21:56;;;;;;;17.27;6.28;;;;;;;13.26;76.62;101298.34;5064206;28;20503;-50
2022/07/22 03:24:22;;;;;;;11.40;4.97;;;;;;;13.22;76.74;101325.88;5058389;28;20044;-50
2022/07/22 03:26:48;;;;;;;11.77;5.15;;;;;;;13.15;77.11;101328.53;5050927;28;20072;-49
2022/07/22 03:29:14;;;;;;;12.30;5.35;;;;;;;13.20;76.95;101326.03;5051475;28;20067;-49
2022/07/22 03:31:41;;;;;;;11.52;4.85;;;;;;;13.14;77.26;101322.34;5050899;28;20021;-48
2022/07/22 03:34:07;;;;;;;21.50;5.95;;;;;;;13.04;77.61;101311.19;5051213;28;20382;-50
2022/07/22 03:36:33;;;;;;;13.73;5.40;;;;;;;13.02;77.93;101320.50;5046376;28;20061;-49
2022/07/22 03:38:59;;;;;;;14.30;5.70;;;;;;;13.00;78.20;101331.47;5051431;28;20055;-48
2022/07/22 03:41:26;;;;;;;14.43;5.28;;;;;;;13.00;78.33;101322.59;5065233;28;20508;-48
2022/07/22 03:43:52;;;;;;;11.82;5.60;;;;;;;13.07;78.27;101321.53;5050865;28;20036;-50
2022/07/22 03:46:18;;;;;;;19.67;6.65;;;;;;;13.01;78.60;101321.56;5050799;28;20025;-49
2022/07/22 03:48:44;;;;;;;13.75;6.65;;;;;;;12.95;79.00;101318.66;5051278;28;20029;-48
2022/07/22 03:51:11;;;;;;;25.55;7.50;;;;;;;12.99;79.00;101320.91;5051167;28;20350;-50
2022/07/22 03:53:37;;;;;;;19.60;7.13;;;;;;;12.92;79.09;101331.69;5049047;28;20025;-48
2022/07/22 03:56:03;;;;;;;17.88;6.18;;;;;;;12.83;79.53;101325.72;5049741;28;20025;-48
2022/07/22 03:58:30;;;;;;;21.20;6.57;;;;;;;12.77;79.62;101329.25;5050674;28;20074;-47
2022/07/22 04:00:56;;;;;;;18.60;7.10;;;;;;;12.86;79.32;101330.66;5050494;28;20047;-50
2022/07/22 04:03:22;;;;;;;23.40;7.35;;;;;;;12.76;79.54;101335.63;5049648;28;20029;-47
2022/07/22 04:05:48;;;;;;;19.25;8.82;;;;;;;12.76;79.73;101340.19;5050609;28;20025;-49
2022/07/22 04:08:17;;;;;;;18.20;6.78;;;;;;;12.78;79.64;101355.06;5030969;28;20053;-49
2022/07/22 04:10:44;;;;;;;15.32;6.80;;;;;;;12.80;79.65;101346.78;5041225;28;20029;-51
2022/07/22 04:13:11;;;;;;;23.73;6.28;;;;;;;12.81;79.49;101348.44;5049630;28;20056;-49
2022/07/22 04:15:37;;;;;;;20.83;7.13;;;;;;;12.79;79.34;101342.47;5047599;28;20440;-51
2022/07/22 04:18:03;;;;;;;16.75;6.97;;;;;;;12.87;79.11;101336.84;5051221;28;20136;-50
2022/07/22 04:20:29;;;;;;;16.58;7.07;;;;;;;12.89;79.19;101332.13;5054647;28;20025;-50
2022/07/22 04:22:56;;;;;;;23.88;7.32;;;;;;;12.89;79.21;101340.19;5052176;28;20040;-50
2022/07/22 04:25:22;;;;;;;20.80;7.55;;;;;;;13.03;78.67;101332.91;5054476;28;20020;-50
2022/07/22 04:27:50;;;;;;;27.80;7.78;;;;;;;12.97;79.12;101331.06;5050726;28;20024;-50
2022/07/22 04:30:16;;;;;;;18.45;6.78;;;;;;;13.05;78.80;101349.66;5054191;28;20033;-49
2022/07/22 04:32:43;;;;;;;17.30;6.97;;;;;;;13.03;78.92;101346.34;5053003;28;20029;-48
2022/07/22 04:35:09;;;;;;;17.35;7.28;;;;;;;13.07;78.97;101347.59;5053208;28;20044;-47
2022/07/22 04:37:35;;;;;;;18.80;7.38;;;;;;;13.13;78.50;101341.38;5052994;28;20065;-47
2022/07/22 04:40:01;;;;;;;20.25;7.28;;;;;;;13.07;78.37;101342.22;5052910;28;20143;-50
2022/07/22 04:42:28;;;;;;;19.13;7.45;;;;;;;13.09;78.68;101340.94;5052397;28;20028;-46
2022/07/22 04:44:54;;;;;;;21.40;7.40;;;;;;;13.08;78.68;101343.84;5052830;28;20037;-47
2022/07/22 04:47:20;;;;;;;23.88;7.50;;;;;;;12.97;79.05;101336.44;5053811;28;20640;-47
2022/07/22 04:49:46;;;;;;;22.55;7.80;;;;;;;13.05;78.93;101342.44;5050802;28;20065;-50
2022/07/22 04:52:12;;;;;;;20.60;7.25;;;;;;;13.07;78.49;101348.41;5053706;28;20028;-46
2022/07/22 04:54:39;;;;;;;21.17;7.22;;;;;;;13.05;78.61;101334.38;5050468;28;20040;-47
2022/07/22 04:57:05;;;;;;;28.42;7.95;;;;;;;13.05;78.59;101347.81;5053839;28;20029;-50
2022/07/22 04:59:31;;;;;;;22.90;8.63;;;;;;;13.07;78.77;101353.78;5052528;28;20067;-50
2022/07/22 05:01:57;;;;;;;26.40;7.88;;;;;;;13.07;78.71;101347.59;5052669;28;20029;-47
2022/07/22 05:04:24;;;;;;;24.10;8.20;;;;;;;13.13;78.43;101350.25;5052341;28;20036;-47
2022/07/22 05:06:50;;;;;;;22.33;7.70;;;;;;;13.08;78.63;101349.22;5051295;28;20033;-46
2022/07/22 05:09:16;;;;;;;19.95;7.93;;;;;;;13.12;78.33;101351.28;5053463;28;20052;-49
2022/07/22 05:11:42;;;;;;;18.73;7.32;;;;;;;13.15;78.38;101353.53;5050318;28;20079;-49
2022/07/22 05:14:08;;;;;;;18.23;7.28;;;;;;;13.20;78.42;101353.75;5040413;23;20100;-46
2022/07/22 05:16:39;;;;;;;21.02;7.85;;;;;;;13.23;78.12;101352.53;5032658;28;20401;-46
2022/07/22 05:19:06;;;;;;;18.13;7.30;;;;;;;13.17;78.30;101356.03;5033566;28;20036;-49
2022/07/22 05:21:33;;;;;;;19.00;7.97;;;;;;;13.19;78.22;101359.34;5031143;28;20034;-49
2022/07/22 05:23:59;;;;;;;17.48;7.05;;;;;;;13.17;78.27;101353.34;5032296;28;20116;-49
2022/07/22 05:26:28;;;;;;;19.13;6.50;;;;;;;13.37;77.48;101356.81;5032189;28;20033;-49
2022/07/22 05:28:55;;;;;;;23.17;7.20;;;;;;;13.36;77.49;101352.50;5031383;28;20048;-49
2022/07/22 05:31:21;;;;;;;16.70;6.50;;;;;;;13.37;77.73;101359.50;5032301;28;20532;-49
2022/07/22 05:33:48;;;;;;;22.23;7.60;;;;;;;13.41;77.52;101354.56;5031610;28;20038;-49
2022/07/22 05:36:14;;;;;;;32.25;7.55;;;;;;;13.40;77.48;101353.72;5033370;28;20480;-45
2022/07/22 05:38:40;;;;;;;22.67;6.88;;;;;;;13.37;77.67;101356.00;5029834;28;20117;-47
2022/07/22 05:41:06;;;;;;;22.50;7.60;;;;;;;13.31;77.86;101355.00;5032468;28;20029;-46
2022/07/22 05:43:33;;;;;;;24.30;7.00;;;;;;;13.31;77.90;101357.69;5031731;28;20049;-47
2022/07/22 05:45:59;;;;;;;21.33;7.95;;;;;;;13.36;77.52;101363.25;5020046;28;20486;-48
2022/07/22 05:48:25;;;;;;;25.30;7.55;;;;;;;13.35;77.41;101364.28;5014093;28;20030;-50
2022/07/22 05:50:52;;;;;;;20.80;7.43;;;;;;;13.38;77.20;101357.66;5035713;28;20037;-48
2022/07/22 05:53:18;;;;;;;18.52;6.25;;;;;;;13.34;76.67;101356.44;5029073;28;20033;-45
2022/07/22 05:55:44;;;;;;;20.20;7.25;;;;;;;13.39;76.90;101362.84;5032568;28;20029;-49
2022/07/22 05:58:10;;;;;;;28.23;7.47;;;;;;;13.39;77.12;101362.00;5032192;28;20029;-46
2022/07/22 06:00:37;;;;;;;19.35;7.13;;;;;;;13.39;77.41;101365.53;5032746;28;20079;-47
2022/07/22 06:03:03;;;;;;;23.73;7.50;;;;;;;13.34;77.62;101368.03;5032341;28;20032;-47
2022/07/22 06:05:29;;;;;;;15.48;7.18;;;;;;;13.48;77.19;101366.94;5017006;28;20034;-45
2022/07/22 06:07:55;;;;;;;21.85;7.68;;;;;;;13.52;76.85;101361.97;5012971;28;20113;-46
2022/07/22 06:10:22;;;;;;;18.80;6.32;;;;;;;13.51;76.82;101354.13;5024753;28;20029;-46
2022/07/22 06:12:48;;;;;;;23.75;8.07;;;;;;;13.41;77.18;101359.94;5031742;28;20129;-46
2022/07/22 06:15:14;;;;;;;24.98;7.55;;;;;;;13.46;77.17;101357.44;5035659;28;20400;-45
2022/07/22 06:17:40;;;;;;;19.77;7.30;;;;;;;13.43;77.67;101353.28;5031259;28;20028;-49
2022/07/22 06:20:07;;;;;;;22.58;8.27;;;;;;;13.37;78.03;101343.38;5031392;28;20032;-47
2022/07/22 06:22:33;;;;;;;18.33;7.53;;;;;;;13.41;78.26;101338.41;5029985;28;20080;-45
2022/07/22 06:24:59;;;;;;;18.40;7.63;;;;;;;13.26;78.64;101351.28;5031057;28;20589;-48
2022/07/22 06:27:26;;;;;;;17.90;7.45;;;;;;;13.40;78.40;101350.22;5029336;28;20044;-47
2022/07/22 06:29:52;;;;;;;25.73;7.57;;;;;;;13.44;78.33;101343.38;5032158;28;20382;-47
2022/07/22 06:32:18;;;;;;;18.10;8.65;;;;;;;13.46;77.84;101336.75;5030214;28;20401;-45
2022/07/22 06:34:44;;;;;;;17.17;7.57;;;;;;;13.40;78.34;101342.97;5036006;28;20048;-46
2022/07/22 06:37:10;;;;;;;18.10;7.10;;;;;;;13.39;78.41;101341.34;5010679;28;20056;-46
2022/07/22 06:39:36;;;;;;;16.60;8.40;;;;;;;13.48;77.86;101344.59;5031996;28;20024;-47
2022/07/22 06:42:03;;;;;;;26.10;8.43;;;;;;;13.40;78.05;101342.16;5026892;28;20033;-46
2022/07/22 06:44:29;;;;;;;20.30;7.85;;;;;;;13.44;78.05;101343.38;5028156;28;20037;-47
2022/07/22 06:46:55;;;;;;;24.30;7.68;;;;;;;13.45;78.20;101340.47;5031932;28;20025;-48
2022/07/22 06:49:22;;;;;;;24.42;7.70;;;;;;;13.43;78.85;101344.41;5010541;28;20076;-45
2022/07/22 06:51:48;;;;;;;30.65;7.80;;;;;;;13.47;78.77;101334.88;5012132;28;20049;-46
2022/07/22 06:54:14;;;;;;;21.30;6.88;;;;;;;13.47;78.71;101334.88;5026630;28;20139;-47
2022/07/22 06:56:40;;;;;;;30.08;8.30;;;;;;;13.46;78.53;101325.16;5029219;28;20119;-50
2022/07/22 06:59:06;;;;;;;21.58;6.97;;;;;;;13.45;78.80;101326.22;5030791;28;20500;-49
2022/07/22 07:01:33;;;;;;;18.67;7.10;;;;;;;13.47;78.23;101327.63;5014137;28;20037;-46
2022/07/22 07:03:59;;;;;;;14.73;6.93;;;;;;;13.61;77.70;101316.84;5030664;28;20026;-46
2022/07/22 07:06:25;;;;;;;15.93;6.38;;;;;;;13.42;78.29;101319.38;5029789;28;20038;-48
2022/07/22 07:08:51;;;;;;;18.95;7.00;;;;;;;13.53;77.90;101325.13;5030345;28;20604;-48
2022/07/22 07:11:18;;;;;;;23.33;8.57;;;;;;;13.54;77.44;101321.41;5029178;28;20072;-48
2022/07/22 07:13:45;;;;;;;20.98;7.93;;;;;;;13.56;77.04;101327.41;5029679;28;20080;-46
2022/07/22 07:16:11;;;;;;;17.67;6.28;;;;;;;13.42;77.36;101314.00;5030628;28;20490;-46
2022/07/22 07:18:37;;;;;;;15.98;6.85;;;;;;;13.50;76.73;101312.94;5012507;28;20021;-45
2022/07/22 07:21:04;;;;;;;23.55;7.57;;;;;;;13.45;76.73;101313.59;5029613;28;20496;-46
2022/07/22 07:23:31;;;;;;;19.63;7.38;;;;;;;13.40;76.87;101315.25;5029062;28;20037;-48
2022/07/22 07:25:57;;;;;;;21.95;7.97;;;;;;;13.34;77.18;101311.56;5012693;28;20120;-50
2022/07/22 07:28:23;;;;;;;19.65;7.13;;;;;;;13.29;77.31;101314.06;5031447;28;20021;-46
2022/07/22 07:30:50;;;;;;;17.80;7.55;;;;;;;13.39;77.04;101309.06;5030150;28;20084;-45
2022/07/22 07:33:16;;;;;;;19.23;7.07;;;;;;;13.33;77.13;101306.41;5012653;28;20037;-50
2022/07/22 07:35:42;;;;;;;17.42;7.55;;;;;;;13.27;77.39;101309.91;5029040;28;20037;-50
2022/07/22 07:38:08;;;;;;;21.05;8.32;;;;;;;13.28;77.41;101307.03;5029982;28;20466;-45
2022/07/22 07:40:35;;;;;;;23.17;8.02;;;;;;;13.26;77.43;101297.53;5025566;28;20038;-46
2022/07/22 07:43:01;;;;;;;28.02;7.68;;;;;;;13.30;77.40;101302.25;5023999;28;20026;-49
2022/07/22 07:45:28;;;;;;;21.42;7.95;;;;;;;13.25;77.28;101291.31;5029922;28;20029;-49
2022/07/22 07:47:54;;;;;;;21.00;7.43;;;;;;;13.21;77.30;101300.84;5031383;28;20245;-49
2022/07/22 07:50:20;;;;;;;29.17;7.55;;;;;;;13.26;77.38;101295.66;5019833;28;20414;-50
2022/07/22 07:52:49;;;;;;;21.17;7.25;;;;;;;13.24;77.68;101299.59;5027820;28;20033;-49
2022/07/22 07:55:16;;;;;;;25.00;7.93;;;;;;;13.27;77.42;101296.47;5033079;28;20037;-49
2022/07/22 07:57:43;;;;;;;19.13;7.32;;;;;;;13.19;77.93;101292.13;5035149;28;20065;-46
2022/07/22 08:00:11;;;;;;;27.00;8.60;;;;;;;13.18;77.86;101283.25;5033440;28;20056;-49
2022/07/22 08:02:37;;;;;;;24.33;8.20;;;;;;;13.17;77.40;101286.97;5034656;28;20052;-46
2022/07/22 08:05:05;;;;;;;16.90;7.35;;;;;;;13.11;77.41;101285.16;5033681;28;20034;-49
2022/07/22 08:07:31;;;;;;;22.90;7.45;;;;;;;13.11;77.97;101290.53;5033156;28;20029;-48
2022/07/22 08:09:57;;;;;;;23.23;7.50;;;;;;;13.14;77.82;101290.09;5025321;28;20095;-47
2022/07/22 08:12:23;;;;;;;22.88;7.30;;;;;;;13.07;78.23;101285.78;5014732;28;20507;-49
2022/07/22 08:14:50;;;;;;;20.33;7.55;;;;;;;13.19;77.83;101279.53;5020301;28;20372;-47
2022/07/22 08:17:16;;;;;;;23.55;8.43;;;;;;;13.10;78.12;101269.22;5030267;28;20471;-48
2022/07/22 08:19:42;;;;;;;22.20;8.75;;;;;;;13.06;78.50;101262.63;5032324;28;20079;-46
2022/07/22 08:22:08;;;;;;;26.73;8.32;;;;;;;12.99;78.72;101259.94;5033082;28;20550;-46
2022/07/22 08:24:35;;;;;;;24.00;8.13;;;;;;;13.14;77.96;101265.06;5033262;28;20037;-46
2022/07/22 08:27:01;;;;;;;27.48;7.32;;;;;;;13.10;77.94;101255.78;5023763;28;20033;-48
2022/07/22 08:29:28;;;;;;;26.85;7.63;;;;;;;13.14;77.91;101259.69;5000699;28;20031;-48
2022/07/22 08:31:54;;;;;;;30.23;8.27;;;;;;;13.07;77.98;101258.91;5033842;28;20026;-47
2022/07/22 08:34:20;;;;;;;21.77;8.43;;;;;;;13.05;78.18;101251.06;5032130;28;20025;-48
2022/07/22 08:36:46;;;;;;;26.95;8.00;;;;;;;13.10;78.07;101253.09;5032493;28;20021;-48
2022/07/22 08:39:13;;;;;;;21.08;7.82;;;;;;;12.98;78.49;101246.72;5033070;28;20071;-49
2022/07/22 08:41:39;;;;;;;19.15;7.85;;;;;;;13.05;78.20;101248.38;5034302;28;20424;-48
2022/07/22 08:44:08;;;;;;;26.38;7.82;;;;;;;13.14;77.68;101243.56;5033876;28;20083;-46
2022/07/22 08:46:34;;;;;;;20.20;7.68;;;;;;;13.02;78.48;101239.91;5032851;28;20025;-49
2022/07/22 08:49:01;;;;;;;27.75;8.13;;;;;;;12.98;78.36;101255.59;5032987;28;20055;-46
2022/07/22 08:51:28;;;;;;;24.67;8.23;;;;;;;12.90;78.95;101251.31;5030723;28;20397;-49
2022/07/22 08:53:56;;;;;;;24.45;7.75;;;;;;;12.90;78.74;101247.78;5034272;28;20590;-50
2022/07/22 08:56:22;;;;;;;29.60;8.35;;;;;;;12.95;78.53;101248.81;5031649;28;20091;-47
2022/07/22 08:58:49;;;;;;;20.33;8.20;;;;;;;12.80;79.07;101245.53;5033004;28;20082;-49
2022/07/22 09:01:17;;;;;;;23.25;7.97;;;;;;;12.76;79.17;101243.47;5032722;28;20040;-48
2022/07/22 09:03:49;;;;;;;24.42;8.27;;;;;;;12.89;78.86;101246.16;5031285;28;20036;-46
2022/07/22 09:06:16;;;;;;;14.52;7.60;;;;;;;12.94;78.25;101247.16;5031796;28;20044;-48
2022/07/22 09:08:54;;;;;;;19.58;7.97;;;;;;;12.98;77.92;101246.72;5032260;28;20143;-45
2022/07/22 09:11:23;;;;;;;20.42;8.77;;;;;;;12.82;78.36;101243.47;5032666;28;20025;-45
2022/07/22 09:13:50;;;;;;;25.48;8.55;;;;;;;12.79;78.40;101235.00;5033227;28;20088;-48
2022/07/22 09:16:16;;;;;;;26.27;8.10;;;;;;;12.84;78.31;101241.41;5030146;28;20044;-46
2022/07/22 09:18:51;;;;;;;17.00;7.28;;;;;;;12.73;78.54;101249.28;5033691;28;20030;-47
2022/07/22 09:21:17;;;;;;;20.17;8.13;;;;;;;12.64;79.18;101243.31;5031148;28;20036;-49
2022/07/22 09:23:44;;;;;;;28.90;7.97;;;;;;;12.69;79.38;101248.88;5031155;28;20025;-49
2022/07/22 09:26:34;;;;;;;20.02;8.40;;;;;;;12.74;79.38;101257.13;5031896;28;20068;-46
2022/07/22 09:29:02;;;;;;;22.63;7.40;;;;;;;12.61;79.83;101252.63;5031177;28;20066;-47
2022/07/22 09:31:36;;;;;;;24.08;7.93;;;;;;;12.79;79.42;101251.97;5032112;28;20477;-46
2022/07/22 09:34:04;;;;;;;21.50;7.33;;;;;;;12.77;79.45;101237.06;5031588;28;20033;-50
2022/07/22 09:36:30;;;;;;;20.55;7.93;;;;;;;12.81;79.62;101235.63;5032182;28;20036;-46
2022/07/22 09:38:57;;;;;;;23.23;7.25;;;;;;;12.79;79.85;101229.63;5032068;28;20029;-49
2022/07/22 09:41:24;;;;;;;23.90;7.82;;;;;;;12.78;80.35;101246.81;5031597;28;20150;-45
2022/07/22 09:43:50;;;;;;;23.92;8.35;;;;;;;12.77;80.37;101245.97;5030887;28;20028;-45
2022/07/22 09:46:16;;;;;;;25.58;8.30;;;;;;;12.82;80.51;101242.63;5031581;28;20036;-49
2022/07/22 09:48:45;;;;;;;44.13;9.48;;;;;;;12.96;80.44;101244.25;5031526;28;20089;-49
2022/07/22 09:51:11;;;;;;;20.05;7.57;;;;;;;12.95;80.75;101250.69;5032499;28;20500;-46
2022/07/22 09:53:37;;;;;;;19.48;7.25;;;;;;;12.90;80.75;101251.31;5037612;28;20527;-46
2022/07/22 09:56:06;;;;;;;27.63;8.48;;;;;;;12.94;80.95;101247.16;5032444;28;20025;-49
2022/07/22 09:58:32;;;;;;;20.50;8.70;;;;;;;12.97;80.95;101253.16;5032843;28;20033;-49
2022/07/22 10:01:03;;;;;;;27.63;8.52;;;;;;;13.00;80.61;101256.25;5032808;28;20117;-49
2022/07/22 10:03:33;;;;;;;28.27;8.77;;;;;;;13.08;80.29;101252.47;5032305;28;20043;-46
2022/07/22 10:06:01;;;;;;;27.55;8.43;;;;;;;13.23;80.16;101253.09;5032392;28;20434;-46
2022/07/22 10:08:29;;;;;;;26.67;8.38;;;;;;;13.20;79.94;101259.66;5032238;28;20097;-46
2022/07/22 10:11:00;;;;;;;26.80;8.43;;;;;;;13.20;79.57;101250.78;5030148;28;20509;-46
2022/07/22 10:13:27;;;;;;;26.95;7.70;;;;;;;13.16;79.81;101249.56;5025214;28;20053;-48
2022/07/22 10:15:55;;;;;;;28.27;9.18;;;;;;;13.16;79.86;101254.94;5032103;28;20034;-48
2022/07/22 10:18:22;;;;;;;23.63;8.63;;;;;;;13.20;80.02;101256.16;5032214;28;20101;-49
2022/07/22 10:21:00;;;;;;;23.92;9.80;;;;;;;13.17;79.87;101248.53;5032508;28;20026;-49
2022/07/22 10:23:26;;;;;;;20.55;8.57;;;;;;;13.19;80.38;101252.63;5030526;28;20029;-46
2022/07/22 10:25:54;;;;;;;25.95;8.27;;;;;;;13.35;79.82;101258.63;5032208;28;20496;-48
2022/07/22 10:28:29;;;;;;;29.83;8.38;;;;;;;13.38;79.99;101267.09;5015107;28;20126;-47
2022/07/22 10:31:19;;;;;;;23.45;8.48;;;;;;;13.34;79.96;101247.03;5034818;28;20025;-49
2022/07/22 10:33:51;;;;;;;30.33;8.70;;;;;;;13.40;79.51;101256.94;5022347;28;20037;-46
2022/07/22 10:36:42;;;;;;;25.98;8.63;;;;;;;13.26;79.63;101238.38;5031597;28;20028;-47
2022/07/22 10:39:11;;;;;;;21.45;7.63;;;;;;;13.30;79.35;101245.81;5032106;28;20029;-49
2022/07/22 10:41:41;;;;;;;24.65;7.85;;;;;;;13.04;80.10;101251.25;5031504;28;20025;-48
2022/07/22 10:44:08;;;;;;;27.58;8.30;;;;;;;12.97;80.45;101245.91;5031825;28;20387;-47
2022/07/22 10:46:54;;;;;;;28.42;7.68;;;;;;;13.04;80.42;101246.69;5025353;28;20056;-45
2022/07/22 10:49:24;;;;;;;22.50;7.50;;;;;;;13.05;80.24;101242.19;5011892;28;20072;-46
2022/07/22 10:52:12;;;;;;;24.98;8.20;;;;;;;13.00;80.32;101233.91;5014893;28;20022;-46
2022/07/22 10:55:20;;;;;;;26.30;8.73;;;;;;;12.98;80.02;101244.84;5017355;28;20021;-46
2022/07/22 10:57:46;;;;;;;25.02;7.70;;;;;;;12.92;79.86;101254.59;4993424;28;20095;-47
2022/07/22 11:00:13;;;;;;;31.33;8.45;;;;;;;12.77;80.38;101261.25;5035739;28;20079;-50
2022/07/22 11:02:39;;;;;;;23.60;8.40;;;;;;;12.81;80.38;101263.31;5031231;28;20112;-46
2022/07/22 11:05:07;;;;;;;29.00;7.93;;;;;;;12.81;80.35;101263.31;5016247;28;20036;-49
2022/07/22 11:07:34;;;;;;;23.20;8.13;;;;;;;12.79;80.78;101257.31;5025701;28;20512;-45
2022/07/22 11:10:20;;;;;;;23.38;7.82;;;;;;;12.79;80.82;101260.00;5030662;28;20029;-50
2022/07/22 11:12:48;;;;;;;32.70;8.82;;;;;;;12.77;80.52;101248.66;5030612;28;20038;-47
2022/07/22 11:15:15;;;;;;;22.48;7.80;;;;;;;12.72;80.72;101253.84;5020487;28;20025;-45
2022/07/22 11:17:42;;;;;;;29.60;9.88;;;;;;;12.69;81.00;101248.88;5025815;28;20033;-46